createdAt,value
2019-05-13T00:00:03.571Z,2.00
2019-05-13T00:02:30.937Z,2.00
2019-05-13T00:04:59.401Z,1.87
2019-05-13T00:07:27.019Z,2.40
2019-05-13T00:09:55.407Z,1.80
2019-05-13T00:12:24.086Z,1.73
2019-05-13T00:14:53.989Z,1.80
2019-05-13T00:17:23.666Z,1.80
2019-05-13T00:19:53.225Z,1.77
2019-05-13T00:22:23.440Z,1.80
2019-05-13T00:24:51.360Z,1.50
2019-05-13T00:27:19.308Z,1.77
2019-05-13T00:29:47.244Z,1.47
2019-05-13T00:32:15.573Z,1.63
2019-05-13T00:34:44.516Z,1.90
2019-05-13T00:37:14.641Z,2.00
2019-05-13T00:39:44.212Z,1.97
2019-05-13T00:42:14.258Z,2.00
2019-05-13T00:44:44.322Z,2.20
2019-05-13T00:47:13.236Z,2.53
2019-05-13T00:49:41.047Z,2.20
2019-05-13T00:52:09.084Z,2.30
2019-05-13T00:54:36.764Z,2.10
2019-05-13T00:57:04.511Z,1.97
2019-05-13T00:59:33.838Z,1.97
2019-05-13T01:02:03.567Z,2.20
2019-05-13T01:04:33.699Z,1.80
2019-05-13T01:07:01.080Z,2.10
2019-05-13T01:09:29.246Z,1.80
2019-05-13T01:11:57.241Z,2.13
2019-05-13T01:14:24.917Z,2.47
2019-05-13T01:16:54.437Z,2.20
2019-05-13T01:19:23.726Z,2.27
2019-05-13T01:21:54.043Z,2.20
2019-05-13T01:24:24.333Z,2.17
2019-05-13T01:26:54.181Z,2.30
2019-05-13T01:29:23.867Z,2.03
2019-05-13T01:31:53.838Z,1.90
2019-05-13T01:34:23.567Z,1.80
2019-05-13T01:36:53.559Z,1.90
2019-05-13T01:39:24.364Z,2.03
2019-05-13T01:41:53.559Z,2.10
2019-05-13T01:44:21.599Z,1.77
2019-05-13T01:46:49.985Z,2.00
2019-05-13T01:49:18.741Z,2.20
2019-05-13T01:51:46.633Z,1.87
2019-05-13T01:54:14.578Z,2.20
2019-05-13T01:56:44.110Z,2.00
2019-05-13T01:59:14.987Z,1.90
2019-05-13T02:01:44.215Z,1.90
2019-05-13T02:04:14.045Z,1.90
2019-05-13T02:06:44.108Z,2.50
2019-05-13T02:09:11.214Z,2.13
2019-05-13T02:11:38.921Z,1.87
2019-05-13T02:14:07.133Z,1.80
2019-05-13T02:16:34.900Z,2.00
2019-05-13T02:19:03.845Z,1.97
2019-05-13T02:21:33.636Z,1.90
2019-05-13T02:24:04.224Z,1.90
2019-05-13T02:26:34.365Z,1.80
2019-05-13T02:29:03.656Z,1.80
2019-05-13T02:31:41.494Z,2.03
2019-05-13T02:34:02.545Z,1.80
2019-05-13T02:36:32.952Z,1.90
2019-05-13T02:39:02.546Z,1.60
2019-05-13T02:41:33.875Z,1.90
2019-05-13T02:44:03.432Z,1.70
2019-05-13T02:46:33.655Z,1.90
2019-05-13T02:49:03.181Z,1.80
2019-05-13T02:51:32.859Z,2.20
2019-05-13T02:54:03.659Z,1.60
2019-05-13T02:56:33.047Z,1.70
2019-05-13T02:59:04.003Z,1.93
2019-05-13T03:01:33.245Z,3.17
2019-05-13T03:04:03.090Z,1.63
2019-05-13T03:06:33.225Z,2.10
2019-05-13T03:09:02.960Z,1.73
2019-05-13T03:11:32.874Z,1.67
2019-05-13T03:14:03.386Z,1.90
2019-05-13T03:16:48.481Z,1.60
2019-05-13T03:19:16.542Z,1.63
2019-05-13T03:21:44.568Z,1.80
2019-05-13T03:24:13.354Z,1.80
2019-05-13T03:26:42.718Z,1.83
2019-05-13T03:29:13.193Z,1.80
2019-05-13T03:31:45.592Z,1.87
2019-05-13T03:34:14.949Z,1.73
2019-05-13T03:36:44.891Z,1.90
2019-05-13T03:39:14.619Z,1.93
2019-05-13T03:41:42.374Z,1.47
2019-05-13T03:44:13.574Z,1.63
2019-05-13T03:46:42.523Z,1.80
2019-05-13T03:49:13.711Z,1.80
2019-05-13T03:51:42.913Z,2.00
2019-05-13T03:54:12.649Z,1.90
2019-05-13T03:56:42.424Z,2.00
2019-05-13T03:59:09.130Z,2.03
2019-05-13T04:01:37.067Z,1.73
2019-05-13T04:04:04.769Z,1.90
2019-05-13T04:06:32.707Z,1.70
2019-05-13T04:09:17.311Z,1.73
2019-05-13T04:11:32.983Z,2.00
2019-05-13T04:14:02.864Z,1.80
2019-05-13T04:16:32.327Z,1.73
2019-05-13T04:19:02.658Z,1.80
2019-05-13T04:21:29.013Z,1.73
2019-05-13T04:23:56.691Z,1.97
2019-05-13T04:26:24.459Z,1.70
2019-05-13T04:28:53.078Z,1.97
2019-05-13T04:31:22.754Z,1.70
2019-05-13T04:33:53.097Z,2.00
2019-05-13T04:36:23.446Z,1.83
2019-05-13T04:38:52.841Z,1.70
2019-05-13T04:41:22.966Z,1.80
2019-05-13T04:43:53.632Z,1.40
2019-05-13T04:46:22.474Z,1.70
2019-05-13T04:48:49.163Z,1.40
2019-05-13T04:51:17.481Z,1.60
2019-05-13T04:53:45.717Z,1.70
2019-05-13T04:56:14.513Z,1.70
2019-05-13T04:58:43.328Z,2.10
2019-05-13T05:01:52.249Z,1.77
2019-05-13T05:04:24.091Z,1.50
2019-05-13T05:07:13.219Z,1.90
2019-05-13T05:10:16.956Z,1.90
2019-05-13T05:12:36.477Z,1.93
2019-05-13T05:15:26.261Z,2.10
2019-05-13T05:18:07.241Z,2.00
2019-05-13T05:20:38.692Z,1.97
2019-05-13T05:23:25.764Z,2.20
2019-05-13T05:26:15.172Z,2.00
2019-05-13T05:29:03.686Z,1.90
2019-05-13T05:31:35.165Z,1.80
2019-05-13T05:34:15.291Z,2.20
2019-05-13T05:36:57.439Z,2.10
2019-05-13T05:39:26.200Z,1.77
2019-05-13T05:41:55.009Z,2.10
2019-05-13T05:44:24.573Z,2.10
2019-05-13T05:46:53.010Z,2.23
2019-05-13T05:49:22.481Z,2.37
2019-05-13T05:51:51.607Z,2.30
2019-05-13T05:54:21.856Z,2.03
2019-05-13T05:56:51.979Z,2.80
2019-05-13T05:59:21.995Z,2.50
2019-05-13T06:01:52.726Z,2.20
2019-05-13T06:04:22.086Z,2.17
2019-05-13T06:06:52.206Z,2.60
2019-05-13T06:09:21.426Z,2.50
2019-05-13T06:11:49.290Z,2.53
2019-05-13T06:14:17.622Z,2.10
2019-05-13T06:16:45.652Z,2.33
2019-05-13T06:19:13.560Z,2.10
2019-05-13T06:21:42.188Z,2.50
2019-05-13T06:24:11.652Z,2.37
2019-05-13T06:26:42.062Z,2.20
2019-05-13T06:29:11.476Z,2.20
2019-05-13T06:31:41.638Z,2.63
2019-05-13T06:34:08.647Z,2.53
2019-05-13T06:36:36.572Z,2.40
2019-05-13T06:39:06.132Z,2.83
2019-05-13T06:41:33.864Z,1.90
2019-05-13T06:44:02.715Z,2.00
2019-05-13T06:46:32.315Z,2.30
2019-05-13T06:49:02.686Z,2.20
2019-05-13T06:51:31.437Z,2.50
2019-05-13T06:54:02.262Z,2.00
2019-05-13T06:56:32.267Z,2.20
2019-05-13T06:59:01.484Z,2.40
2019-05-13T07:01:32.311Z,2.73
2019-05-13T07:04:02.414Z,2.53
2019-05-13T07:06:32.279Z,2.03
2019-05-13T07:09:01.414Z,2.27
2019-05-13T07:11:31.447Z,2.20
2019-05-13T07:14:02.085Z,2.20
2019-05-13T07:16:31.464Z,2.73
2019-05-13T07:18:59.023Z,2.70
2019-05-13T07:21:26.922Z,2.30
2019-05-13T07:23:55.111Z,2.50
2019-05-13T07:26:23.677Z,1.90
2019-05-13T07:28:52.561Z,1.87
2019-05-13T07:31:21.758Z,2.00
2019-05-13T07:33:51.774Z,2.20
2019-05-13T07:36:19.323Z,1.90
2019-05-13T07:38:47.048Z,2.07
2019-05-13T07:41:15.277Z,1.80
2019-05-13T07:43:43.705Z,1.70
2019-05-13T07:46:12.566Z,1.77
2019-05-13T07:48:41.698Z,2.37
2019-05-13T07:51:12.008Z,1.90
2019-05-13T07:53:42.625Z,1.83
2019-05-13T07:56:12.437Z,1.40
2019-05-13T07:58:41.892Z,1.70
2019-05-13T08:01:12.225Z,1.60
2019-05-13T08:03:42.091Z,1.20
2019-05-13T08:06:11.133Z,1.27
2019-05-13T08:08:41.487Z,1.67
2019-05-13T08:11:08.567Z,1.37
2019-05-13T08:13:36.729Z,1.23
2019-05-13T08:16:04.664Z,1.77
2019-05-13T08:18:32.564Z,1.50
2019-05-13T08:21:02.043Z,1.63
2019-05-13T08:23:32.367Z,1.50
2019-05-13T08:26:02.199Z,1.10
2019-05-13T08:28:32.068Z,1.30
2019-05-13T08:31:01.779Z,1.23
2019-05-13T08:33:31.864Z,1.27
2019-05-13T08:36:01.432Z,1.40
2019-05-13T08:38:31.694Z,1.30
2019-05-13T08:41:01.686Z,1.17
2019-05-13T08:43:28.659Z,1.20
2019-05-13T08:45:57.019Z,1.20
2019-05-13T08:48:24.735Z,1.33
2019-05-13T08:50:52.753Z,1.27
2019-05-13T08:53:21.246Z,1.20
2019-05-13T08:55:51.557Z,1.27
2019-05-13T08:58:18.792Z,1.20
2019-05-13T09:00:53.612Z,0.90
2019-05-13T09:03:22.010Z,1.23
2019-05-13T09:05:52.446Z,1.20
2019-05-13T09:08:22.320Z,1.37
2019-05-13T09:10:53.203Z,1.30
2019-05-13T09:13:22.203Z,1.00
2019-05-13T09:15:51.680Z,1.10
2019-05-13T09:18:22.484Z,1.37
2019-05-13T09:20:51.851Z,1.10
2019-05-13T09:23:22.030Z,1.20
2019-05-13T09:25:51.454Z,1.10
2019-05-13T09:28:21.765Z,1.10
2019-05-13T09:30:49.217Z,1.30
2019-05-13T09:33:17.086Z,1.37
2019-05-13T09:35:44.996Z,1.00
2019-05-13T09:38:12.906Z,1.50
2019-05-13T09:40:42.259Z,1.23
2019-05-13T09:43:11.601Z,1.53
2019-05-13T09:45:41.760Z,1.20
2019-05-13T09:48:09.545Z,1.30
2019-05-13T09:50:37.570Z,1.00
2019-05-13T09:53:05.529Z,1.60
2019-05-13T09:55:33.267Z,1.40
2019-05-13T09:58:02.454Z,1.43
2019-05-13T10:00:32.291Z,1.10
2019-05-13T10:03:02.127Z,1.10
2019-05-13T10:05:31.706Z,0.90
2019-05-13T10:08:02.323Z,1.00
2019-05-13T10:10:31.638Z,1.13
2019-05-13T10:13:09.242Z,1.30
2019-05-13T10:15:28.200Z,1.33
2019-05-13T10:17:56.435Z,1.00
2019-05-13T10:20:38.000Z,0.93
2019-05-13T10:23:06.001Z,1.33
2019-05-13T10:25:34.145Z,1.37
2019-05-13T10:28:02.354Z,1.20
2019-05-13T10:30:32.186Z,1.27
2019-05-13T10:33:02.674Z,1.00
2019-05-13T10:35:31.623Z,1.20
2019-05-13T10:38:03.721Z,1.20
2019-05-13T10:40:32.717Z,1.20
2019-05-13T10:43:01.755Z,1.13
2019-05-13T10:45:32.426Z,1.27
2019-05-13T10:48:02.844Z,1.00
2019-05-13T10:50:30.049Z,1.30
2019-05-13T10:52:59.315Z,1.30
2019-05-13T10:55:27.141Z,1.40
2019-05-13T10:57:55.124Z,1.27
2019-05-13T11:00:26.464Z,1.30
2019-05-13T11:02:54.589Z,1.20
2019-05-13T11:05:22.970Z,1.40
2019-05-13T11:07:51.865Z,1.57
2019-05-13T11:10:22.392Z,1.60
2019-05-13T11:12:52.046Z,1.43
2019-05-13T11:15:20.582Z,1.30
2019-05-13T11:17:51.779Z,1.30
2019-05-13T11:20:22.043Z,1.40
2019-05-13T11:22:48.733Z,1.53
2019-05-13T11:25:17.413Z,1.50
2019-05-13T11:27:45.597Z,1.43
2019-05-13T11:30:14.030Z,1.60
2019-05-13T11:32:42.854Z,1.40
2019-05-13T11:35:12.668Z,1.73
2019-05-13T11:37:43.496Z,1.67
2019-05-13T11:40:12.056Z,1.63
2019-05-13T11:42:42.215Z,1.40
2019-05-13T11:45:11.868Z,1.63
2019-05-13T11:47:41.522Z,1.50
2019-05-13T11:50:11.546Z,1.40
2019-05-13T11:52:38.973Z,1.50
2019-05-13T11:55:07.309Z,1.67
2019-05-13T11:57:35.094Z,1.30
2019-05-13T12:00:03.026Z,1.50
2019-05-13T12:02:32.697Z,1.43
2019-05-13T12:05:03.774Z,1.20
2019-05-13T12:07:32.208Z,2.03
2019-05-13T12:10:01.991Z,1.60
2019-05-13T12:12:33.600Z,1.90
2019-05-13T12:15:22.481Z,1.20
2019-05-13T12:17:28.475Z,1.87
2019-05-13T12:19:56.577Z,1.70
2019-05-13T12:22:25.024Z,1.60
2019-05-13T12:24:53.029Z,1.50
2019-05-13T12:27:20.968Z,1.63
2019-05-13T12:29:52.624Z,1.57
2019-05-13T12:32:19.260Z,1.40
2019-05-13T12:34:47.009Z,1.50
2019-05-13T12:37:15.087Z,1.50
2019-05-13T12:39:44.098Z,1.30
2019-05-13T12:42:12.890Z,1.37
2019-05-13T12:44:59.752Z,1.43
2019-05-13T12:47:12.097Z,1.50
2019-05-13T12:49:43.910Z,1.40
2019-05-13T12:52:13.105Z,1.80
2019-05-13T12:54:42.707Z,1.77
2019-05-13T12:57:13.086Z,1.70
2019-05-13T12:59:43.019Z,1.63
2019-05-13T13:02:13.028Z,1.60
2019-05-13T13:04:39.171Z,1.83
2019-05-13T13:07:07.706Z,1.60
2019-05-13T13:09:35.606Z,2.07
2019-05-13T13:12:03.376Z,1.50
2019-05-13T13:14:38.632Z,1.93
2019-05-13T13:17:04.106Z,1.90
2019-05-13T13:19:33.954Z,2.27
2019-05-13T13:22:04.760Z,1.83
2019-05-13T13:24:31.817Z,2.10
2019-05-13T13:27:00.296Z,1.83
2019-05-13T13:29:28.155Z,1.80
2019-05-13T13:31:56.099Z,1.90
2019-05-13T13:34:25.773Z,2.00
2019-05-13T13:36:53.674Z,1.70
2019-05-13T13:39:25.363Z,1.70
2019-05-13T13:41:53.311Z,1.90
2019-05-13T13:44:24.653Z,1.90
2019-05-13T13:46:54.330Z,1.80
2019-05-13T13:49:23.023Z,2.10
2019-05-13T13:51:50.037Z,1.90
2019-05-13T13:54:18.456Z,1.83
2019-05-13T13:56:46.374Z,1.90
2019-05-13T13:59:14.755Z,1.73
2019-05-13T14:01:42.401Z,1.73
2019-05-13T14:04:15.977Z,1.70
2019-05-13T14:09:12.031Z,1.67
2019-05-13T14:11:42.035Z,1.80
2019-05-13T14:14:12.394Z,1.77
2019-05-13T14:16:42.256Z,1.90
2019-05-13T14:19:09.634Z,1.50
2019-05-13T14:21:37.712Z,2.27
2019-05-13T14:24:05.600Z,1.83
2019-05-13T14:26:33.660Z,2.10
2019-05-13T14:29:02.639Z,1.83
2019-05-13T14:31:32.338Z,1.83
2019-05-13T14:34:03.398Z,1.80
2019-05-13T14:36:30.550Z,2.03
2019-05-13T14:38:58.588Z,2.03
2019-05-13T14:41:26.635Z,1.80
2019-05-13T14:43:54.693Z,1.80
2019-05-13T14:46:27.346Z,1.53
2019-05-13T14:48:52.599Z,1.60
2019-05-13T14:51:21.840Z,1.90
2019-05-13T14:53:51.790Z,1.97
2019-05-13T14:56:19.144Z,2.13
2019-05-13T14:58:47.387Z,2.10
2019-05-13T15:01:19.916Z,1.83
2019-05-13T15:03:45.476Z,1.90
2019-05-13T15:06:13.494Z,2.10
2019-05-13T15:08:42.118Z,1.60
2019-05-13T15:11:12.351Z,1.80
2019-05-13T15:13:42.434Z,2.20
2019-05-13T15:16:09.903Z,1.60
2019-05-13T15:18:38.276Z,1.60
2019-05-13T15:21:06.005Z,1.70
2019-05-13T15:23:33.645Z,2.27
2019-05-13T15:26:02.425Z,2.30
2019-05-13T15:28:31.621Z,1.93
2019-05-13T15:31:00.283Z,1.73
2019-05-13T15:33:28.328Z,2.10
2019-05-13T15:35:56.514Z,2.07
2019-05-13T15:38:24.965Z,1.80
2019-05-13T15:40:52.901Z,2.00
2019-05-13T15:43:22.382Z,1.80
2019-05-13T15:45:51.310Z,2.20
2019-05-13T15:48:19.272Z,2.00
2019-05-13T15:50:51.282Z,2.00
2019-05-13T15:53:21.495Z,1.67
2019-05-13T15:55:48.972Z,1.80
2019-05-13T15:58:17.197Z,2.20
2019-05-13T16:00:45.874Z,2.13
2019-05-13T16:03:14.133Z,2.30
2019-05-13T16:05:42.443Z,1.90
2019-05-13T16:08:12.205Z,1.93
2019-05-13T16:10:42.041Z,2.13
2019-05-13T16:13:11.831Z,2.07
2019-05-13T16:15:41.605Z,2.10
2019-05-13T16:18:11.652Z,2.00
2019-05-13T16:20:42.838Z,2.10
2019-05-13T16:23:09.172Z,1.83
2019-05-13T16:25:36.810Z,1.97
2019-05-13T16:28:04.893Z,2.10
2019-05-13T16:30:32.692Z,1.90
2019-05-13T16:33:02.812Z,2.10
2019-05-13T16:35:31.850Z,2.00
2019-05-13T16:38:01.889Z,2.00
2019-05-13T16:40:36.148Z,2.00
2019-05-13T16:43:01.337Z,1.60
2019-05-13T16:45:31.533Z,1.73
2019-05-13T16:48:04.182Z,1.77
2019-05-13T16:50:44.133Z,2.10
2019-05-13T16:53:12.750Z,2.00
2019-05-13T16:55:41.676Z,2.20
2019-05-13T16:58:09.687Z,1.70
2019-05-13T17:00:37.955Z,2.10
2019-05-13T17:03:05.710Z,2.13
2019-05-13T17:05:33.719Z,1.90
2019-05-13T17:08:02.250Z,2.17
2019-05-13T17:10:31.566Z,1.90
2019-05-13T17:13:03.155Z,1.77
2019-05-13T17:15:31.532Z,1.80
2019-05-13T17:18:09.279Z,1.97
2019-05-13T17:20:31.954Z,1.70
2019-05-13T17:23:01.671Z,1.67
2019-05-13T17:25:28.695Z,1.90
2019-05-13T17:27:56.513Z,1.80
2019-05-13T17:30:24.189Z,1.70
2019-05-13T17:32:52.541Z,1.80
2019-05-13T17:35:21.946Z,2.10
2019-05-13T17:37:52.016Z,1.60
2019-05-13T17:40:22.284Z,2.07
2019-05-13T17:42:49.825Z,2.00
2019-05-13T17:45:21.994Z,1.90
2019-05-13T17:47:56.063Z,1.57
2019-05-13T17:50:24.016Z,1.80
2019-05-13T17:52:53.700Z,1.90
2019-05-13T17:55:22.255Z,1.80
2019-05-13T17:57:50.430Z,2.00
2019-05-13T18:00:21.628Z,1.67
2019-05-13T18:02:54.178Z,1.83
2019-05-13T18:05:24.056Z,1.73
2019-05-13T18:07:51.756Z,1.73
2019-05-13T18:10:19.491Z,1.87
2019-05-13T18:12:47.120Z,1.40
2019-05-13T18:15:15.121Z,1.77
2019-05-13T18:17:46.063Z,1.77
2019-05-13T18:20:28.436Z,1.70
2019-05-13T18:22:56.374Z,1.43
2019-05-13T18:25:24.666Z,1.60
2019-05-13T18:27:52.642Z,1.87
2019-05-13T18:30:20.552Z,1.70
2019-05-13T18:32:48.719Z,1.50
2019-05-13T18:35:16.465Z,1.83
2019-05-13T18:37:44.710Z,1.73
2019-05-13T18:40:12.693Z,1.70
2019-05-13T18:42:42.126Z,1.50
2019-05-13T18:45:11.465Z,1.50
2019-05-13T18:47:40.233Z,1.50
2019-05-13T18:50:08.169Z,1.60
2019-05-13T18:52:36.150Z,1.70
2019-05-13T18:55:04.059Z,1.60
2019-05-13T18:57:32.224Z,1.60
2019-05-13T19:00:02.082Z,1.43
2019-05-13T19:02:31.886Z,1.40
2019-05-13T19:05:01.247Z,1.47
2019-05-13T19:07:31.401Z,1.50
2019-05-13T19:09:58.715Z,1.30
2019-05-13T19:12:26.795Z,1.60
2019-05-13T19:14:55.112Z,1.50
2019-05-13T19:17:25.653Z,1.20
2019-05-13T19:19:54.664Z,1.50
2019-05-13T19:22:23.265Z,1.50
2019-05-13T19:24:51.783Z,1.70
2019-05-13T19:27:21.627Z,1.60
2019-05-13T19:29:52.184Z,2.00
2019-05-13T19:32:21.755Z,1.40
2019-05-13T19:34:51.550Z,1.30
2019-05-13T19:37:18.976Z,1.30
2019-05-13T19:39:47.465Z,1.40
2019-05-13T19:42:15.250Z,1.53
2019-05-13T19:44:43.354Z,1.60
2019-05-13T19:47:12.393Z,1.67
2019-05-13T19:49:44.122Z,1.67
2019-05-13T19:52:11.951Z,1.40
2019-05-13T19:54:41.870Z,1.50
2019-05-13T19:57:11.884Z,1.70
2019-05-13T19:59:42.490Z,1.40
2019-05-13T20:02:12.059Z,1.50
2019-05-13T20:04:41.168Z,1.40
2019-05-13T20:07:11.616Z,1.40
2019-05-13T20:09:39.074Z,1.50
2019-05-13T20:12:07.460Z,1.60
2019-05-13T20:14:35.098Z,1.70
2019-05-13T20:17:03.284Z,1.53
2019-05-13T20:19:46.066Z,1.70
2019-05-13T20:22:02.374Z,1.77
2019-05-13T20:24:31.325Z,1.63
2019-05-13T20:27:01.359Z,1.60
2019-05-13T20:29:29.200Z,1.70
2019-05-13T20:31:57.440Z,1.70
2019-05-13T20:34:25.239Z,1.60
2019-05-13T20:36:53.209Z,1.67
2019-05-13T20:39:22.436Z,1.53
2019-05-13T20:41:55.584Z,1.60
2019-05-13T20:44:21.988Z,1.70
2019-05-13T20:46:51.833Z,1.53
2019-05-13T20:49:21.721Z,2.27
2019-05-13T20:51:49.065Z,1.80
2019-05-13T20:54:17.276Z,2.17
2019-05-13T20:56:45.308Z,2.13
2019-05-13T20:59:13.492Z,1.67
2019-05-13T21:01:42.057Z,2.13
2019-05-13T21:04:12.285Z,1.80
2019-05-13T21:06:42.169Z,1.47
2019-05-13T21:09:14.363Z,2.07
2019-05-13T21:11:41.625Z,1.70
2019-05-13T21:14:08.888Z,1.80
2019-05-13T21:16:36.834Z,1.73
2019-05-13T21:19:05.091Z,2.03
2019-05-13T21:21:32.825Z,1.73
2019-05-13T21:24:01.551Z,2.00
2019-05-13T21:26:31.507Z,2.33
2019-05-13T21:29:01.451Z,2.03
2019-05-13T21:31:29.024Z,2.10
2019-05-13T21:33:57.277Z,2.10
2019-05-13T21:36:25.923Z,2.20
2019-05-13T21:38:54.195Z,2.07
2019-05-13T21:41:22.144Z,2.17
2019-05-13T21:43:52.028Z,2.60
2019-05-13T21:46:21.229Z,2.07
2019-05-13T21:48:49.412Z,1.93
2019-05-13T21:51:17.744Z,2.03
2019-05-13T21:53:45.991Z,2.13
2019-05-13T21:56:14.450Z,2.10
2019-05-13T21:58:42.096Z,2.33
2019-05-13T22:01:10.073Z,2.10
2019-05-13T22:03:37.772Z,2.60
2019-05-13T22:06:05.700Z,2.40
2019-05-13T22:08:33.750Z,2.20
2019-05-13T22:11:02.128Z,2.30
2019-05-13T22:13:31.577Z,2.43
2019-05-13T22:16:01.723Z,2.40
2019-05-13T22:18:31.350Z,2.47
2019-05-13T22:21:01.124Z,2.23
2019-05-13T22:23:31.818Z,2.10
2019-05-13T22:26:01.707Z,2.20
2019-05-13T22:28:31.177Z,2.10
2019-05-13T22:31:01.614Z,2.30
2019-05-13T22:33:32.162Z,2.30
2019-05-13T22:36:01.633Z,2.00
2019-05-13T22:38:31.982Z,2.40
2019-05-13T22:41:01.133Z,1.77
2019-05-13T22:43:28.823Z,2.10
2019-05-13T22:45:56.953Z,2.20
2019-05-13T22:48:25.221Z,2.10
2019-05-13T22:50:53.331Z,2.00
2019-05-13T22:53:21.194Z,1.87
2019-05-13T22:55:48.996Z,2.00
2019-05-13T22:58:16.811Z,2.70
2019-05-13T23:00:44.444Z,1.60
2019-05-13T23:03:12.372Z,2.03
2019-05-13T23:05:41.600Z,1.80
2019-05-13T23:08:11.309Z,1.80
2019-05-13T23:10:41.919Z,2.40
2019-05-13T23:13:09.317Z,1.70
2019-05-13T23:15:37.903Z,2.07
2019-05-13T23:18:06.002Z,2.20
2019-05-13T23:20:33.959Z,1.80
2019-05-13T23:23:01.972Z,2.00
2019-05-13T23:25:31.861Z,2.00
2019-05-13T23:27:59.957Z,2.00
2019-05-13T23:30:28.281Z,2.00
2019-05-13T23:32:55.930Z,2.53
2019-05-13T23:35:24.221Z,2.10
2019-05-13T23:37:52.488Z,2.23
2019-05-13T23:40:20.593Z,2.07
2019-05-13T23:42:48.923Z,2.30
2019-05-13T23:45:18.629Z,2.40
2019-05-13T23:47:47.031Z,2.07
2019-05-13T23:50:15.421Z,2.00
2019-05-13T23:52:43.560Z,2.00
2019-05-13T23:55:11.633Z,1.97
2019-05-13T23:57:39.331Z,1.90
